createdAt,value
2019-05-09T00:02:27.252Z,5.15
2019-05-09T00:04:58.336Z,5.17
2019-05-09T00:07:29.224Z,5.20
2019-05-09T00:09:59.980Z,5.78
2019-05-09T00:12:33.391Z,5.80
2019-05-09T00:15:04.522Z,5.72
2019-05-09T00:17:35.403Z,5.95
2019-05-09T00:20:13.611Z,5.78
2019-05-09T00:22:44.338Z,6.50
2019-05-09T00:25:15.354Z,5.65
2019-05-09T00:27:46.399Z,5.60
2019-05-09T00:30:19.771Z,6.15
2019-05-09T00:32:50.627Z,5.75
2019-05-09T00:35:29.418Z,5.83
2019-05-09T00:38:05.333Z,4.87
2019-05-09T00:40:36.046Z,4.50
2019-05-09T00:43:07.013Z,4.92
2019-05-09T00:46:06.113Z,4.08
2019-05-09T00:48:50.412Z,4.65
2019-05-09T00:51:23.327Z,4.22
2019-05-09T00:53:54.165Z,4.15
2019-05-09T00:56:25.945Z,4.03
2019-05-09T00:58:57.063Z,4.22
2019-05-09T01:01:28.224Z,4.03
2019-05-09T01:03:59.688Z,4.28
2019-05-09T01:06:30.501Z,4.10
2019-05-09T01:09:01.279Z,3.90
2019-05-09T01:11:33.377Z,3.98
2019-05-09T01:14:04.390Z,3.72
2019-05-09T01:16:35.230Z,3.95
2019-05-09T01:19:06.063Z,4.12
2019-05-09T01:21:36.867Z,3.77
2019-05-09T01:24:08.638Z,3.52
2019-05-09T01:26:39.761Z,3.98
2019-05-09T01:29:14.348Z,3.92
2019-05-09T01:31:46.357Z,4.40
2019-05-09T01:34:26.958Z,3.98
2019-05-09T01:37:07.626Z,3.80
2019-05-09T01:39:38.472Z,3.80
2019-05-09T01:42:09.323Z,3.95
2019-05-09T01:44:44.165Z,3.87
2019-05-09T01:47:14.929Z,3.98
2019-05-09T01:49:45.731Z,3.70
2019-05-09T01:52:16.613Z,3.87
2019-05-09T01:54:49.263Z,3.93
2019-05-09T01:57:20.070Z,3.90
2019-05-09T01:59:52.681Z,4.30
2019-05-09T02:02:23.579Z,4.00
2019-05-09T02:04:54.783Z,4.33
2019-05-09T02:07:26.534Z,4.07
2019-05-09T02:09:57.478Z,3.85
2019-05-09T02:12:28.287Z,3.87
2019-05-09T02:15:05.189Z,3.90
2019-05-09T02:18:01.935Z,3.97
2019-05-09T02:20:30.344Z,3.95
2019-05-09T02:23:03.526Z,4.05
2019-05-09T02:25:33.685Z,4.30
2019-05-09T02:28:05.454Z,4.17
2019-05-09T02:30:37.387Z,3.83
2019-05-09T02:33:08.253Z,3.72
2019-05-09T02:35:47.355Z,4.25
2019-05-09T02:38:12.102Z,4.15
2019-05-09T02:40:43.125Z,4.30
2019-05-09T02:43:14.213Z,4.20
2019-05-09T02:46:04.346Z,3.90
2019-05-09T02:48:38.379Z,4.42
2019-05-09T02:51:09.229Z,4.03
2019-05-09T02:53:40.185Z,3.90
2019-05-09T02:56:11.103Z,4.42
2019-05-09T02:58:50.349Z,4.22
2019-05-09T03:01:31.595Z,4.37
2019-05-09T03:04:02.975Z,4.60
2019-05-09T03:06:33.661Z,4.33
2019-05-09T03:09:08.865Z,4.40
2019-05-09T03:11:39.194Z,4.42
2019-05-09T03:14:10.000Z,4.43
2019-05-09T03:16:41.130Z,4.33
2019-05-09T03:19:13.037Z,3.83
2019-05-09T03:21:51.383Z,4.05
2019-05-09T03:24:22.172Z,3.85
2019-05-09T03:26:59.561Z,3.75
2019-05-09T03:29:35.518Z,4.00
2019-05-09T03:32:09.081Z,3.67
2019-05-09T03:34:39.452Z,3.67
2019-05-09T03:37:10.711Z,3.50
2019-05-09T03:39:41.502Z,3.40
2019-05-09T03:42:12.451Z,3.33
2019-05-09T03:44:43.361Z,3.47
2019-05-09T03:47:29.586Z,3.45
2019-05-09T03:50:14.409Z,3.50
2019-05-09T03:52:47.613Z,3.02
2019-05-09T03:55:22.406Z,3.45
2019-05-09T03:58:02.888Z,3.00
2019-05-09T04:00:34.888Z,3.00
2019-05-09T04:03:07.996Z,3.02
2019-05-09T04:05:38.347Z,3.25
2019-05-09T04:08:18.844Z,3.30
2019-05-09T04:10:52.317Z,3.30
2019-05-09T04:13:38.497Z,3.40
2019-05-09T04:16:10.503Z,3.02
2019-05-09T04:18:41.242Z,2.50
2019-05-09T04:21:12.267Z,2.95
2019-05-09T04:23:43.032Z,2.77
2019-05-09T04:26:20.781Z,2.80
2019-05-09T04:28:51.754Z,2.92
2019-05-09T04:31:22.582Z,2.75
2019-05-09T04:33:53.287Z,3.05
2019-05-09T04:36:38.597Z,3.02
2019-05-09T04:39:12.821Z,3.25
2019-05-09T04:41:45.155Z,2.60
2019-05-09T04:44:30.464Z,2.90
2019-05-09T04:47:03.552Z,2.72
2019-05-09T04:49:39.529Z,2.85
2019-05-09T04:52:07.643Z,2.60
2019-05-09T04:54:38.601Z,3.10
2019-05-09T04:57:09.600Z,2.80
2019-05-09T04:59:40.431Z,2.83
2019-05-09T05:02:42.495Z,2.87
2019-05-09T05:05:13.566Z,2.87
2019-05-09T05:07:44.582Z,2.95
2019-05-09T05:10:15.472Z,2.83
2019-05-09T05:12:48.330Z,3.40
2019-05-09T05:15:20.545Z,3.67
2019-05-09T05:17:51.079Z,3.60
2019-05-09T05:20:24.592Z,3.75
2019-05-09T05:23:00.914Z,3.60
2019-05-09T05:25:32.369Z,3.40
2019-05-09T05:28:03.116Z,3.45
2019-05-09T05:30:37.241Z,3.75
2019-05-09T05:33:28.443Z,3.98
2019-05-09T05:36:00.963Z,4.08
2019-05-09T05:38:31.954Z,3.70
2019-05-09T05:41:02.891Z,3.87
2019-05-09T05:43:41.591Z,3.70
2019-05-09T05:46:14.366Z,4.10
2019-05-09T05:48:45.817Z,3.47
2019-05-09T05:51:18.426Z,3.92
2019-05-09T05:53:49.223Z,4.12
2019-05-09T05:56:20.016Z,3.52
2019-05-09T05:58:50.746Z,3.47
2019-05-09T06:01:21.489Z,3.98
2019-05-09T06:03:52.221Z,3.85
2019-05-09T06:06:23.065Z,3.80
2019-05-09T06:08:53.807Z,3.67
2019-05-09T06:11:24.581Z,3.58
2019-05-09T06:14:03.965Z,3.65
2019-05-09T06:16:28.177Z,3.60
2019-05-09T06:18:59.455Z,3.70
2019-05-09T06:21:30.244Z,3.80
2019-05-09T06:24:01.332Z,3.75
2019-05-09T06:26:32.096Z,3.80
2019-05-09T06:29:02.904Z,4.20
2019-05-09T06:31:34.021Z,3.60
2019-05-09T06:34:08.163Z,3.92
2019-05-09T06:36:39.094Z,3.58
2019-05-09T06:39:10.715Z,3.75
2019-05-09T06:41:41.630Z,3.83
2019-05-09T06:44:20.657Z,3.87
2019-05-09T06:46:58.670Z,3.70
2019-05-09T06:49:34.773Z,3.95
2019-05-09T06:52:05.646Z,3.80
2019-05-09T06:54:36.447Z,3.58
2019-05-09T06:57:07.991Z,4.03
2019-05-09T06:59:38.882Z,4.78
2019-05-09T07:02:17.654Z,4.28
2019-05-09T07:04:52.439Z,3.65
2019-05-09T07:07:51.625Z,3.72
2019-05-09T07:10:23.097Z,3.80
2019-05-09T07:12:53.774Z,3.00
2019-05-09T07:15:24.850Z,3.27
2019-05-09T07:17:57.499Z,3.30
2019-05-09T07:20:28.831Z,3.20
2019-05-09T07:22:59.568Z,3.00
2019-05-09T07:26:07.834Z,2.75
2019-05-09T07:28:40.241Z,3.10
2019-05-09T07:31:30.291Z,3.00
2019-05-09T07:34:08.590Z,2.67
2019-05-09T07:36:39.459Z,5.78
2019-05-09T07:39:10.280Z,2.52
2019-05-09T07:41:41.092Z,2.30
2019-05-09T07:44:11.877Z,2.70
2019-05-09T07:46:57.911Z,2.77
2019-05-09T07:49:30.159Z,2.47
2019-05-09T07:52:06.894Z,2.62
2019-05-09T07:54:34.610Z,2.80
2019-05-09T07:57:05.691Z,2.70
2019-05-09T07:59:38.900Z,3.02
2019-05-09T08:02:10.100Z,2.70
2019-05-09T08:04:40.955Z,2.33
2019-05-09T08:07:12.567Z,2.27
2019-05-09T08:09:43.301Z,2.83
2019-05-09T08:12:14.066Z,3.10
2019-05-09T08:14:44.739Z,2.62
2019-05-09T08:17:18.119Z,2.40
2019-05-09T08:19:49.585Z,2.35
2019-05-09T08:22:25.859Z,2.30
2019-05-09T08:24:54.200Z,2.80
2019-05-09T08:27:25.022Z,2.85
2019-05-09T08:29:58.166Z,2.50
2019-05-09T08:32:28.729Z,2.60
2019-05-09T08:34:59.460Z,3.25
2019-05-09T08:37:30.235Z,2.83
2019-05-09T08:40:01.087Z,2.30
2019-05-09T08:42:31.973Z,2.22
2019-05-09T08:45:03.030Z,2.05
2019-05-09T08:47:33.747Z,2.10
2019-05-09T08:50:12.739Z,2.20
2019-05-09T08:52:43.490Z,2.50
2019-05-09T08:55:14.349Z,2.40
2019-05-09T08:57:45.231Z,2.40
2019-05-09T09:00:18.815Z,2.50
2019-05-09T09:02:49.104Z,2.50
2019-05-09T09:05:20.406Z,2.70
2019-05-09T09:07:51.214Z,2.58
2019-05-09T09:10:22.168Z,3.12
2019-05-09T09:12:53.158Z,2.40
2019-05-09T09:15:46.684Z,2.90
2019-05-09T09:17:58.068Z,3.02
2019-05-09T09:20:29.067Z,2.67
2019-05-09T09:23:00.226Z,2.42
2019-05-09T09:25:31.219Z,2.35
2019-05-09T09:28:01.960Z,2.58
2019-05-09T09:30:32.737Z,2.70
2019-05-09T09:33:03.463Z,2.90
2019-05-09T09:35:34.207Z,2.85
2019-05-09T09:38:04.971Z,2.83
2019-05-09T09:40:38.292Z,2.47
2019-05-09T09:43:09.354Z,2.70
2019-05-09T09:45:40.468Z,3.50
2019-05-09T09:48:11.466Z,3.00
2019-05-09T09:50:42.211Z,3.40
2019-05-09T09:53:12.995Z,3.40
2019-05-09T09:55:44.154Z,3.10
2019-05-09T09:58:14.940Z,3.50
2019-05-09T10:01:18.175Z,3.65
2019-05-09T10:03:54.739Z,4.10
2019-05-09T10:06:28.302Z,2.85
2019-05-09T10:08:59.048Z,2.92
2019-05-09T10:11:29.906Z,2.60
2019-05-09T10:14:00.791Z,2.45
2019-05-09T10:16:39.059Z,2.37
2019-05-09T10:19:32.182Z,2.75
2019-05-09T10:22:04.573Z,2.65
2019-05-09T10:24:35.394Z,2.30
2019-05-09T10:27:08.679Z,2.72
2019-05-09T10:29:39.369Z,2.70
2019-05-09T10:32:12.762Z,2.62
2019-05-09T10:34:43.730Z,2.55
2019-05-09T10:37:14.496Z,2.72
2019-05-09T10:39:48.757Z,3.00
2019-05-09T10:42:37.946Z,3.00
2019-05-09T10:45:32.206Z,2.52
2019-05-09T10:48:02.933Z,2.50
2019-05-09T10:50:34.941Z,2.58
2019-05-09T10:53:08.003Z,2.98
2019-05-09T10:55:38.702Z,2.90
2019-05-09T10:58:09.529Z,3.20
2019-05-09T11:00:40.345Z,2.62
2019-05-09T11:03:11.069Z,2.80
2019-05-09T11:05:41.785Z,2.83
2019-05-09T11:08:12.766Z,3.12
2019-05-09T11:10:43.668Z,2.35
2019-05-09T11:13:14.797Z,2.70
2019-05-09T11:15:47.785Z,2.90
2019-05-09T11:18:18.651Z,2.87
2019-05-09T11:20:49.427Z,2.52
2019-05-09T11:23:20.429Z,2.60
2019-05-09T11:25:51.459Z,2.75
2019-05-09T11:28:22.350Z,3.20
2019-05-09T11:30:53.063Z,3.20
2019-05-09T11:33:23.791Z,3.00
2019-05-09T11:35:54.861Z,3.00
2019-05-09T11:38:32.287Z,3.15
2019-05-09T11:40:58.156Z,3.10
2019-05-09T11:43:29.898Z,3.47
2019-05-09T11:46:00.802Z,3.10
2019-05-09T11:48:31.551Z,2.90
2019-05-09T11:51:03.216Z,3.45
2019-05-09T11:53:33.953Z,3.40
2019-05-09T11:56:04.967Z,3.67
2019-05-09T11:58:37.822Z,2.98
2019-05-09T12:01:08.371Z,3.35
2019-05-09T12:03:39.162Z,3.40
2019-05-09T12:06:10.498Z,4.80
2019-05-09T12:08:41.188Z,4.70
2019-05-09T12:11:11.990Z,4.65
2019-05-09T12:13:42.870Z,4.60
2019-05-09T12:16:14.008Z,4.25
2019-05-09T12:18:44.910Z,4.97
2019-05-09T12:21:18.652Z,4.85
2019-05-09T12:23:49.068Z,4.50
2019-05-09T12:26:20.525Z,3.40
2019-05-09T12:28:51.464Z,2.90
2019-05-09T12:31:22.340Z,2.90
2019-05-09T12:33:53.125Z,3.70
2019-05-09T12:36:23.923Z,4.40
2019-05-09T12:38:54.796Z,4.30
2019-05-09T12:41:30.978Z,3.92
2019-05-09T12:43:58.438Z,3.30
2019-05-09T12:46:29.128Z,4.22
2019-05-09T12:48:59.935Z,3.87
2019-05-09T12:51:30.763Z,4.00
2019-05-09T12:54:01.469Z,3.90
2019-05-09T12:56:32.223Z,3.70
2019-05-09T12:59:02.944Z,3.12
2019-05-09T13:01:33.966Z,2.27
2019-05-09T13:04:05.090Z,2.42
2019-05-09T13:06:38.090Z,2.40
2019-05-09T13:09:08.841Z,2.52
2019-05-09T13:11:39.566Z,3.10
2019-05-09T13:14:10.468Z,2.87
2019-05-09T13:16:50.779Z,2.17
2019-05-09T13:19:21.350Z,2.37
2019-05-09T13:21:52.162Z,2.02
2019-05-09T13:24:22.821Z,2.08
2019-05-09T13:26:53.833Z,1.90
2019-05-09T13:29:24.809Z,2.20
2019-05-09T13:31:57.664Z,2.22
2019-05-09T13:34:28.573Z,1.60
2019-05-09T13:36:59.659Z,1.70
2019-05-09T13:39:30.765Z,2.00
2019-05-09T13:42:01.660Z,2.37
2019-05-09T13:44:32.504Z,1.82
2019-05-09T13:47:03.400Z,1.82
2019-05-09T13:49:34.388Z,1.92
2019-05-09T13:52:05.371Z,2.50
2019-05-09T13:54:38.098Z,2.10
2019-05-09T13:57:09.005Z,2.62
2019-05-09T13:59:39.812Z,3.70
2019-05-09T14:02:10.925Z,2.55
2019-05-09T14:04:41.678Z,2.10
2019-05-09T14:07:12.850Z,2.35
2019-05-09T14:09:43.666Z,2.00
2019-05-09T14:12:14.375Z,2.22
2019-05-09T14:14:45.695Z,2.37
2019-05-09T14:17:19.109Z,1.60
2019-05-09T14:19:51.130Z,1.62
2019-05-09T14:22:21.722Z,1.80
2019-05-09T14:24:52.679Z,1.90
2019-05-09T14:27:23.456Z,1.60
2019-05-09T14:29:54.275Z,2.12
2019-05-09T14:32:26.743Z,3.50
2019-05-09T14:34:58.670Z,2.30
2019-05-09T14:37:29.421Z,2.25
2019-05-09T14:40:04.222Z,2.10
2019-05-09T14:42:32.810Z,2.00
2019-05-09T14:45:03.852Z,2.10
2019-05-09T14:47:39.517Z,2.27
2019-05-09T14:50:09.798Z,2.12
2019-05-09T14:52:40.161Z,2.42
2019-05-09T14:55:11.029Z,2.25
2019-05-09T14:57:42.836Z,2.47
2019-05-09T15:00:14.235Z,2.60
2019-05-09T15:02:45.576Z,3.00
2019-05-09T15:05:18.759Z,3.00
2019-05-09T15:07:49.814Z,2.90
2019-05-09T15:10:21.053Z,2.70
2019-05-09T15:12:52.556Z,2.95
2019-05-09T15:15:23.745Z,2.85
2019-05-09T15:17:55.256Z,2.77
2019-05-09T15:20:28.090Z,2.85
2019-05-09T15:22:59.268Z,2.67
2019-05-09T15:25:30.724Z,2.80
2019-05-09T15:28:01.439Z,2.80
2019-05-09T15:30:32.288Z,2.80
2019-05-09T15:33:08.190Z,2.85
2019-05-09T15:35:39.201Z,2.87
2019-05-09T15:38:10.420Z,3.10
2019-05-09T15:40:42.073Z,2.77
2019-05-09T15:43:12.770Z,3.25
2019-05-09T15:45:57.952Z,3.10
2019-05-09T15:48:27.960Z,2.40
2019-05-09T15:50:58.896Z,2.77
2019-05-09T15:53:29.937Z,3.55
2019-05-09T15:56:00.755Z,2.70
2019-05-09T15:58:32.578Z,2.60
2019-05-09T16:01:03.411Z,2.90
2019-05-09T16:03:34.289Z,2.92
2019-05-09T16:06:05.159Z,2.50
2019-05-09T16:08:38.079Z,2.83
2019-05-09T16:11:08.771Z,2.65
2019-05-09T16:13:39.667Z,2.90
2019-05-09T16:16:10.585Z,2.70
2019-05-09T16:18:42.937Z,2.47
2019-05-09T16:21:15.043Z,2.77
2019-05-09T16:23:48.667Z,2.70
2019-05-09T16:26:19.307Z,2.40
2019-05-09T16:28:50.019Z,2.55
2019-05-09T16:31:20.819Z,2.12
2019-05-09T16:33:51.644Z,2.70
2019-05-09T16:36:22.533Z,2.50
2019-05-09T16:38:54.723Z,2.90
2019-05-09T16:41:27.863Z,2.65
2019-05-09T16:44:02.150Z,2.47
2019-05-09T16:46:37.345Z,2.33
2019-05-09T16:49:11.692Z,2.35
2019-05-09T16:51:40.837Z,2.30
2019-05-09T16:54:11.831Z,2.40
2019-05-09T16:56:43.199Z,2.10
2019-05-09T16:59:14.721Z,2.20
2019-05-09T17:01:47.568Z,2.27
2019-05-09T17:04:19.381Z,2.20
2019-05-09T17:06:50.375Z,2.25
2019-05-09T17:09:21.495Z,2.70
2019-05-09T17:11:52.360Z,2.60
2019-05-09T17:14:23.519Z,2.50
2019-05-09T17:16:54.361Z,2.95
2019-05-09T17:19:25.275Z,2.35
2019-05-09T17:22:02.822Z,1.72
2019-05-09T17:24:33.691Z,1.90
2019-05-09T17:27:05.569Z,1.55
2019-05-09T17:29:38.312Z,1.65
2019-05-09T17:32:11.210Z,1.87
2019-05-09T17:34:42.518Z,2.10
2019-05-09T17:37:13.398Z,1.80
2019-05-09T17:39:44.446Z,2.02
2019-05-09T17:42:15.247Z,2.00
2019-05-09T17:44:49.354Z,1.82
2019-05-09T17:47:20.898Z,2.20
2019-05-09T17:49:52.604Z,2.40
2019-05-09T17:52:23.472Z,3.05
2019-05-09T17:54:54.579Z,3.20
2019-05-09T17:57:27.912Z,3.80
2019-05-09T17:59:58.780Z,3.87
2019-05-09T18:02:30.692Z,4.83
2019-05-09T18:05:02.819Z,4.22
2019-05-09T18:07:34.116Z,3.40
2019-05-09T18:10:07.592Z,3.37
2019-05-09T18:12:38.497Z,3.95
2019-05-09T18:15:10.004Z,2.80
2019-05-09T18:17:41.040Z,2.30
2019-05-09T18:20:12.354Z,2.40
2019-05-09T18:22:43.265Z,2.52
2019-05-09T18:25:14.941Z,2.70
2019-05-09T18:27:45.796Z,2.30
2019-05-09T18:30:19.142Z,2.77
2019-05-09T18:32:58.737Z,3.10
2019-05-09T18:35:30.440Z,3.67
2019-05-09T18:38:01.908Z,4.15
2019-05-09T18:40:33.258Z,3.87
2019-05-09T18:43:04.372Z,3.95
2019-05-09T18:45:37.571Z,3.67
2019-05-09T18:48:08.493Z,3.58
2019-05-09T18:50:39.394Z,3.80
2019-05-09T18:53:10.277Z,3.87
2019-05-09T18:55:41.801Z,3.77
2019-05-09T18:58:12.914Z,3.37
2019-05-09T19:00:43.942Z,3.20
2019-05-09T19:03:15.257Z,3.02
2019-05-09T19:05:46.104Z,3.17
2019-05-09T19:08:17.460Z,2.50
2019-05-09T19:10:51.975Z,2.22
2019-05-09T19:13:21.436Z,2.40
2019-05-09T19:16:10.105Z,2.67
2019-05-09T19:19:08.321Z,2.65
2019-05-09T19:21:49.060Z,2.20
2019-05-09T19:24:19.973Z,2.70
2019-05-09T19:26:51.203Z,2.47
2019-05-09T19:29:22.002Z,2.70
2019-05-09T19:31:53.509Z,3.10
2019-05-09T19:34:24.436Z,2.90
2019-05-09T19:36:55.265Z,3.67
2019-05-09T19:39:26.231Z,3.33
2019-05-09T19:41:58.319Z,3.50
2019-05-09T19:44:31.944Z,3.12
2019-05-09T19:47:02.861Z,2.90
2019-05-09T19:49:33.750Z,2.62
2019-05-09T19:52:04.742Z,2.75
2019-05-09T19:54:36.350Z,2.70
2019-05-09T19:57:07.142Z,3.25
2019-05-09T19:59:38.402Z,3.22
2019-05-09T20:02:09.477Z,3.10
2019-05-09T20:04:40.591Z,3.10
2019-05-09T20:07:11.449Z,3.10
2019-05-09T20:09:50.629Z,3.10
2019-05-09T20:12:37.954Z,3.50
2019-05-09T20:15:10.348Z,3.10
2019-05-09T20:17:41.363Z,3.45
2019-05-09T20:20:12.552Z,3.70
2019-05-09T20:22:52.401Z,3.75
2019-05-09T20:25:16.014Z,3.75
2019-05-09T20:27:47.896Z,4.60
2019-05-09T20:30:21.917Z,4.90
2019-05-09T20:32:52.851Z,4.28
2019-05-09T20:35:24.194Z,3.90
2019-05-09T20:37:56.075Z,3.85
2019-05-09T20:40:27.290Z,4.00
2019-05-09T20:42:58.393Z,4.17
2019-05-09T20:45:29.497Z,3.95
2019-05-09T20:48:00.646Z,3.58
2019-05-09T20:50:32.689Z,3.80
2019-05-09T20:53:09.588Z,3.90
2019-05-09T20:55:38.176Z,3.60
2019-05-09T20:58:09.725Z,3.52
2019-05-09T21:00:41.035Z,3.37
2019-05-09T21:03:12.083Z,3.60
2019-05-09T21:05:44.205Z,3.45
2019-05-09T21:08:15.698Z,3.60
2019-05-09T21:10:47.972Z,3.65
2019-05-09T21:13:18.961Z,3.60
2019-05-09T21:15:50.270Z,4.12
2019-05-09T21:18:21.841Z,3.70
2019-05-09T21:20:53.016Z,4.08
2019-05-09T21:23:25.188Z,3.70
2019-05-09T21:25:56.552Z,4.22
2019-05-09T21:28:27.629Z,4.10
2019-05-09T21:31:00.760Z,3.85
2019-05-09T21:33:32.098Z,4.25
2019-05-09T21:36:03.409Z,4.45
2019-05-09T21:38:34.255Z,4.87
2019-05-09T21:41:05.123Z,4.60
2019-05-09T21:43:36.253Z,4.97
2019-05-09T21:46:07.392Z,5.67
2019-05-09T21:48:38.757Z,4.90
2019-05-09T21:51:10.853Z,4.55
2019-05-09T21:53:41.755Z,5.10
2019-05-09T21:56:12.787Z,5.30
2019-05-09T21:58:43.921Z,5.00
2019-05-09T22:01:17.841Z,4.72
2019-05-09T22:03:51.747Z,4.17
2019-05-09T22:06:22.716Z,4.47
2019-05-09T22:08:53.614Z,4.17
2019-05-09T22:11:24.473Z,4.37
2019-05-09T22:13:55.454Z,5.00
2019-05-09T22:16:26.389Z,4.63
2019-05-09T22:18:57.743Z,4.80
2019-05-09T22:21:28.638Z,4.50
2019-05-09T22:23:59.493Z,4.62
2019-05-09T22:26:30.419Z,4.90
2019-05-09T22:29:01.727Z,4.78
2019-05-09T22:31:32.503Z,4.43
2019-05-09T22:34:03.327Z,5.23
2019-05-09T22:36:34.093Z,5.03
2019-05-09T22:39:06.104Z,4.95
2019-05-09T22:41:37.368Z,5.10
2019-05-09T22:44:08.441Z,4.90
2019-05-09T22:46:39.250Z,5.37
2019-05-09T22:49:10.094Z,5.10
2019-05-09T22:51:40.919Z,4.92
2019-05-09T22:54:13.164Z,5.10
2019-05-09T22:56:44.086Z,5.42
2019-05-09T22:59:15.133Z,5.30
2019-05-09T23:01:45.990Z,5.53
2019-05-09T23:04:16.802Z,5.22
2019-05-09T23:06:47.608Z,5.25
2019-05-09T23:09:18.625Z,5.35
2019-05-09T23:11:49.519Z,6.33
2019-05-09T23:14:20.374Z,6.10
2019-05-09T23:16:51.536Z,5.60
2019-05-09T23:19:22.628Z,6.08
2019-05-09T23:21:53.450Z,5.70
2019-05-09T23:24:28.559Z,5.43
2019-05-09T23:26:58.664Z,5.77
2019-05-09T23:29:29.483Z,5.40
2019-05-09T23:32:11.840Z,5.87
2019-05-09T23:34:42.615Z,5.53
2019-05-09T23:37:13.396Z,5.70
2019-05-09T23:39:45.923Z,5.80
2019-05-09T23:42:16.755Z,5.58
2019-05-09T23:44:47.742Z,5.67
2019-05-09T23:47:18.985Z,6.27
2019-05-09T23:49:49.830Z,6.57
2019-05-09T23:52:21.037Z,6.15
2019-05-09T23:55:09.862Z,6.35
2019-05-09T23:57:58.587Z,7.28
